sensor_id;sensor_type;location;lat;lon;timestamp;P1;durP1;ratioP1;P2;durP2;ratioP2
16512;SDS011;8369;48.030;11.598;2023-03-01T00:01:09;20.80;;;11.83;;
16512;SDS011;8369;48.030;11.598;2023-03-01T00:03:36;18.10;;;11.30;;
16512;SDS011;8369;48.030;11.598;2023-03-01T00:06:03;19.97;;;11.60;;
16512;SDS011;8369;48.030;11.598;2023-03-01T00:08:30;18.23;;;10.93;;
16512;SDS011;8369;48.030;11.598;2023-03-01T00:11:06;18.50;;;11.47;;
16512;SDS011;8369;48.030;11.598;2023-03-01T00:13:33;20.63;;;10.97;;
16512;SDS011;8369;48.030;11.598;2023-03-01T00:16:07;20.07;;;11.70;;
16512;SDS011;8369;48.030;11.598;2023-03-01T00:18:34;18.73;;;11.27;;
16512;SDS011;8369;48.030;11.598;2023-03-01T00:21:00;18.50;;;11.30;;
16512;SDS011;8369;48.030;11.598;2023-03-01T00:23:26;21.07;;;11.40;;
16512;SDS011;8369;48.030;11.598;2023-03-01T00:25:52;16.87;;;10.80;;
16512;SDS011;8369;48.030;11.598;2023-03-01T00:28:19;23.40;;;11.37;;
16512;SDS011;8369;48.030;11.598;2023-03-01T00:30:45;18.67;;;10.83;;
16512;SDS011;8369;48.030;11.598;2023-03-01T00:33:11;19.27;;;11.40;;
16512;SDS011;8369;48.030;11.598;2023-03-01T00:35:37;18.77;;;11.13;;
16512;SDS011;8369;48.030;11.598;2023-03-01T00:38:03;16.10;;;11.30;;
16512;SDS011;8369;48.030;11.598;2023-03-01T00:40:30;17.03;;;10.87;;
16512;SDS011;8369;48.030;11.598;2023-03-01T00:42:57;21.10;;;11.30;;
16512;SDS011;8369;48.030;11.598;2023-03-01T00:45:23;19.17;;;10.70;;
16512;SDS011;8369;48.030;11.598;2023-03-01T00:47:49;19.37;;;10.97;;
16512;SDS011;8369;48.030;11.598;2023-03-01T00:50:16;19.90;;;10.90;;
16512;SDS011;8369;48.030;11.598;2023-03-01T00:52:42;19.77;;;12.03;;
16512;SDS011;8369;48.030;11.598;2023-03-01T00:55:09;18.80;;;11.50;;
16512;SDS011;8369;48.030;11.598;2023-03-01T00:57:35;17.70;;;11.67;;
16512;SDS011;8369;48.030;11.598;2023-03-01T01:00:02;19.37;;;11.67;;
16512;SDS011;8369;48.030;11.598;2023-03-01T01:02:29;21.00;;;11.17;;
16512;SDS011;8369;48.030;11.598;2023-03-01T01:04:57;18.63;;;11.47;;
16512;SDS011;8369;48.030;11.598;2023-03-01T01:07:23;17.50;;;11.03;;
16512;SDS011;8369;48.030;11.598;2023-03-01T01:09:48;17.57;;;10.63;;
16512;SDS011;8369;48.030;11.598;2023-03-01T01:12:14;20.97;;;11.87;;
16512;SDS011;8369;48.030;11.598;2023-03-01T01:14:40;19.60;;;11.33;;
16512;SDS011;8369;48.030;11.598;2023-03-01T01:17:06;16.47;;;10.60;;
16512;SDS011;8369;48.030;11.598;2023-03-01T01:19:32;20.80;;;11.43;;
16512;SDS011;8369;48.030;11.598;2023-03-01T01:21:57;16.90;;;11.40;;
16512;SDS011;8369;48.030;11.598;2023-03-01T01:24:23;16.87;;;11.10;;
16512;SDS011;8369;48.030;11.598;2023-03-01T01:26:49;18.17;;;10.90;;
16512;SDS011;8369;48.030;11.598;2023-03-01T01:29:15;16.10;;;10.43;;
16512;SDS011;8369;48.030;11.598;2023-03-01T01:31:41;21.50;;;11.63;;
16512;SDS011;8369;48.030;11.598;2023-03-01T01:34:12;19.47;;;11.23;;
16512;SDS011;8369;48.030;11.598;2023-03-01T01:36:43;21.67;;;11.97;;
16512;SDS011;8369;48.030;11.598;2023-03-01T01:39:09;16.10;;;10.57;;
16512;SDS011;8369;48.030;11.598;2023-03-01T01:41:39;18.67;;;11.00;;
16512;SDS011;8369;48.030;11.598;2023-03-01T01:49:29;19.80;;;11.50;;
16512;SDS011;8369;48.030;11.598;2023-03-01T01:52:04;21.13;;;11.67;;
16512;SDS011;8369;48.030;11.598;2023-03-01T01:54:53;21.50;;;11.83;;
16512;SDS011;8369;48.030;11.598;2023-03-01T01:57:27;19.80;;;11.37;;
16512;SDS011;8369;48.030;11.598;2023-03-01T01:59:59;18.93;;;11.30;;
16512;SDS011;8369;48.030;11.598;2023-03-01T02:02:30;19.53;;;12.53;;
16512;SDS011;8369;48.030;11.598;2023-03-01T02:05:03;17.20;;;11.17;;
16512;SDS011;8369;48.030;11.598;2023-03-01T02:07:36;20.63;;;11.83;;
16512;SDS011;8369;48.030;11.598;2023-03-01T02:10:05;22.33;;;11.10;;
16512;SDS011;8369;48.030;11.598;2023-03-01T02:12:31;17.47;;;10.93;;
16512;SDS011;8369;48.030;11.598;2023-03-01T02:14:59;19.10;;;12.03;;
16512;SDS011;8369;48.030;11.598;2023-03-01T02:17:25;15.30;;;10.73;;
16512;SDS011;8369;48.030;11.598;2023-03-01T02:20:06;18.37;;;10.80;;
16512;SDS011;8369;48.030;11.598;2023-03-01T02:22:36;17.90;;;11.00;;
16512;SDS011;8369;48.030;11.598;2023-03-01T02:27:37;18.83;;;11.27;;
16512;SDS011;8369;48.030;11.598;2023-03-01T02:30:09;17.13;;;10.80;;
16512;SDS011;8369;48.030;11.598;2023-03-01T02:32:38;18.17;;;11.90;;
16512;SDS011;8369;48.030;11.598;2023-03-01T02:35:08;20.60;;;11.43;;
16512;SDS011;8369;48.030;11.598;2023-03-01T02:37:37;16.70;;;11.00;;
16512;SDS011;8369;48.030;11.598;2023-03-01T02:40:06;16.83;;;10.67;;
16512;SDS011;8369;48.030;11.598;2023-03-01T02:42:47;21.13;;;11.17;;
16512;SDS011;8369;48.030;11.598;2023-03-01T02:45:18;20.47;;;11.50;;
16512;SDS011;8369;48.030;11.598;2023-03-01T02:47:45;19.27;;;11.67;;
16512;SDS011;8369;48.030;11.598;2023-03-01T02:50:13;19.20;;;11.07;;
16512;SDS011;8369;48.030;11.598;2023-03-01T02:53:02;20.60;;;11.43;;
16512;SDS011;8369;48.030;11.598;2023-03-01T02:55:35;22.07;;;12.23;;
16512;SDS011;8369;48.030;11.598;2023-03-01T02:58:02;19.37;;;11.90;;
16512;SDS011;8369;48.030;11.598;2023-03-01T03:00:30;20.60;;;11.23;;
16512;SDS011;8369;48.030;11.598;2023-03-01T03:03:01;18.47;;;10.87;;
16512;SDS011;8369;48.030;11.598;2023-03-01T03:05:30;18.90;;;11.33;;
16512;SDS011;8369;48.030;11.598;2023-03-01T03:07:56;18.23;;;11.20;;
16512;SDS011;8369;48.030;11.598;2023-03-01T03:10:25;19.13;;;11.23;;
16512;SDS011;8369;48.030;11.598;2023-03-01T03:12:55;18.83;;;11.50;;
16512;SDS011;8369;48.030;11.598;2023-03-01T03:15:27;18.50;;;11.50;;
16512;SDS011;8369;48.030;11.598;2023-03-01T03:17:54;19.97;;;10.87;;
16512;SDS011;8369;48.030;11.598;2023-03-01T03:20:22;18.13;;;11.30;;
16512;SDS011;8369;48.030;11.598;2023-03-01T03:22:50;19.23;;;11.87;;
16512;SDS011;8369;48.030;11.598;2023-03-01T03:25:20;16.77;;;10.47;;
16512;SDS011;8369;48.030;11.598;2023-03-01T03:27:47;18.53;;;11.93;;
16512;SDS011;8369;48.030;11.598;2023-03-01T03:30:17;19.67;;;11.03;;
16512;SDS011;8369;48.030;11.598;2023-03-01T03:32:45;22.67;;;12.23;;
16512;SDS011;8369;48.030;11.598;2023-03-01T03:35:22;18.97;;;12.23;;
16512;SDS011;8369;48.030;11.598;2023-03-01T03:37:50;18.13;;;11.67;;
16512;SDS011;8369;48.030;11.598;2023-03-01T03:40:34;17.90;;;11.30;;
16512;SDS011;8369;48.030;11.598;2023-03-01T03:43:02;17.50;;;11.13;;
16512;SDS011;8369;48.030;11.598;2023-03-01T03:45:29;21.83;;;12.27;;
16512;SDS011;8369;48.030;11.598;2023-03-01T03:47:58;18.30;;;10.93;;
16512;SDS011;8369;48.030;11.598;2023-03-01T03:50:24;17.60;;;11.57;;
16512;SDS011;8369;48.030;11.598;2023-03-01T03:52:50;18.70;;;11.73;;
16512;SDS011;8369;48.030;11.598;2023-03-01T03:55:15;20.40;;;11.80;;
16512;SDS011;8369;48.030;11.598;2023-03-01T03:57:44;19.30;;;12.33;;
16512;SDS011;8369;48.030;11.598;2023-03-01T04:00:21;16.20;;;10.93;;
16512;SDS011;8369;48.030;11.598;2023-03-01T04:02:49;17.60;;;11.17;;
16512;SDS011;8369;48.030;11.598;2023-03-01T04:05:17;16.30;;;11.93;;
16512;SDS011;8369;48.030;11.598;2023-03-01T04:07:44;18.47;;;11.83;;
16512;SDS011;8369;48.030;11.598;2023-03-01T04:10:11;20.60;;;12.80;;
16512;SDS011;8369;48.030;11.598;2023-03-01T04:12:39;19.17;;;11.37;;
16512;SDS011;8369;48.030;11.598;2023-03-01T04:15:06;20.43;;;12.57;;
16512;SDS011;8369;48.030;11.598;2023-03-01T04:17:42;18.93;;;11.50;;
16512;SDS011;8369;48.030;11.598;2023-03-01T04:20:13;18.47;;;12.10;;
16512;SDS011;8369;48.030;11.598;2023-03-01T04:22:50;20.03;;;12.53;;
16512;SDS011;8369;48.030;11.598;2023-03-01T04:25:25;21.13;;;12.47;;
16512;SDS011;8369;48.030;11.598;2023-03-01T04:27:51;21.30;;;11.50;;
16512;SDS011;8369;48.030;11.598;2023-03-01T04:30:17;19.87;;;12.10;;
16512;SDS011;8369;48.030;11.598;2023-03-01T04:32:43;18.40;;;11.77;;
16512;SDS011;8369;48.030;11.598;2023-03-01T04:35:08;21.40;;;12.27;;
16512;SDS011;8369;48.030;11.598;2023-03-01T04:37:34;16.57;;;10.70;;
16512;SDS011;8369;48.030;11.598;2023-03-01T04:40:03;18.90;;;11.73;;
16512;SDS011;8369;48.030;11.598;2023-03-01T04:42:38;19.20;;;11.70;;
16512;SDS011;8369;48.030;11.598;2023-03-01T04:45:04;18.03;;;11.73;;
16512;SDS011;8369;48.030;11.598;2023-03-01T04:47:38;19.13;;;11.97;;
16512;SDS011;8369;48.030;11.598;2023-03-01T04:50:05;19.97;;;12.17;;
16512;SDS011;8369;48.030;11.598;2023-03-01T04:52:32;20.63;;;12.30;;
16512;SDS011;8369;48.030;11.598;2023-03-01T04:55:01;19.87;;;12.53;;
16512;SDS011;8369;48.030;11.598;2023-03-01T04:57:28;19.27;;;12.63;;
16512;SDS011;8369;48.030;11.598;2023-03-01T04:59:54;24.90;;;13.13;;
16512;SDS011;8369;48.030;11.598;2023-03-01T05:02:20;21.57;;;12.37;;
16512;SDS011;8369;48.030;11.598;2023-03-01T05:04:46;19.23;;;12.17;;
16512;SDS011;8369;48.030;11.598;2023-03-01T05:07:12;21.97;;;11.97;;
16512;SDS011;8369;48.030;11.598;2023-03-01T05:09:38;18.30;;;11.30;;
16512;SDS011;8369;48.030;11.598;2023-03-01T05:12:04;20.40;;;11.87;;
16512;SDS011;8369;48.030;11.598;2023-03-01T05:14:30;18.27;;;11.43;;
16512;SDS011;8369;48.030;11.598;2023-03-01T05:16:55;19.20;;;10.93;;
16512;SDS011;8369;48.030;11.598;2023-03-01T05:19:29;21.27;;;12.17;;
16512;SDS011;8369;48.030;11.598;2023-03-01T05:21:56;19.30;;;11.87;;
16512;SDS011;8369;48.030;11.598;2023-03-01T05:24:32;23.10;;;12.30;;
16512;SDS011;8369;48.030;11.598;2023-03-01T05:26:59;19.93;;;12.03;;
16512;SDS011;8369;48.030;11.598;2023-03-01T05:29:26;19.07;;;11.77;;
16512;SDS011;8369;48.030;11.598;2023-03-01T05:31:54;17.87;;;12.10;;
16512;SDS011;8369;48.030;11.598;2023-03-01T05:34:34;17.90;;;11.67;;
16512;SDS011;8369;48.030;11.598;2023-03-01T05:37:01;20.00;;;12.33;;
16512;SDS011;8369;48.030;11.598;2023-03-01T05:39:28;19.70;;;12.10;;
16512;SDS011;8369;48.030;11.598;2023-03-01T05:41:55;20.37;;;11.77;;
16512;SDS011;8369;48.030;11.598;2023-03-01T05:44:22;18.60;;;11.47;;
16512;SDS011;8369;48.030;11.598;2023-03-01T05:46:48;18.83;;;11.73;;
16512;SDS011;8369;48.030;11.598;2023-03-01T05:49:14;16.03;;;11.20;;
16512;SDS011;8369;48.030;11.598;2023-03-01T05:51:41;20.63;;;12.37;;
16512;SDS011;8369;48.030;11.598;2023-03-01T05:54:11;26.27;;;13.07;;
16512;SDS011;8369;48.030;11.598;2023-03-01T05:56:36;19.20;;;12.30;;
16512;SDS011;8369;48.030;11.598;2023-03-01T05:59:03;23.67;;;13.37;;
16512;SDS011;8369;48.030;11.598;2023-03-01T06:01:33;19.93;;;11.60;;
16512;SDS011;8369;48.030;11.598;2023-03-01T06:03:59;20.07;;;12.60;;
16512;SDS011;8369;48.030;11.598;2023-03-01T06:06:25;20.37;;;11.90;;
16512;SDS011;8369;48.030;11.598;2023-03-01T06:08:51;19.10;;;11.57;;
16512;SDS011;8369;48.030;11.598;2023-03-01T06:11:18;18.47;;;11.97;;
16512;SDS011;8369;48.030;11.598;2023-03-01T06:13:45;19.33;;;12.57;;
16512;SDS011;8369;48.030;11.598;2023-03-01T06:16:11;19.73;;;12.03;;
16512;SDS011;8369;48.030;11.598;2023-03-01T06:18:37;21.23;;;12.40;;
16512;SDS011;8369;48.030;11.598;2023-03-01T06:21:04;20.13;;;12.40;;
16512;SDS011;8369;48.030;11.598;2023-03-01T06:23:31;20.73;;;11.93;;
16512;SDS011;8369;48.030;11.598;2023-03-01T06:25:57;18.20;;;11.07;;
16512;SDS011;8369;48.030;11.598;2023-03-01T06:28:25;17.00;;;11.43;;
16512;SDS011;8369;48.030;11.598;2023-03-01T06:30:51;19.87;;;11.63;;
16512;SDS011;8369;48.030;11.598;2023-03-01T06:33:18;21.77;;;12.17;;
16512;SDS011;8369;48.030;11.598;2023-03-01T06:35:49;20.67;;;12.47;;
16512;SDS011;8369;48.030;11.598;2023-03-01T06:38:15;19.27;;;11.77;;
16512;SDS011;8369;48.030;11.598;2023-03-01T06:40:51;21.17;;;12.90;;
16512;SDS011;8369;48.030;11.598;2023-03-01T06:43:19;20.93;;;12.13;;
16512;SDS011;8369;48.030;11.598;2023-03-01T06:45:45;22.33;;;12.03;;
16512;SDS011;8369;48.030;11.598;2023-03-01T06:48:11;19.27;;;12.57;;
16512;SDS011;8369;48.030;11.598;2023-03-01T06:50:39;25.73;;;12.63;;
16512;SDS011;8369;48.030;11.598;2023-03-01T06:53:05;19.70;;;11.37;;
16512;SDS011;8369;48.030;11.598;2023-03-01T06:55:31;22.17;;;12.60;;
16512;SDS011;8369;48.030;11.598;2023-03-01T06:57:57;19.53;;;12.00;;
16512;SDS011;8369;48.030;11.598;2023-03-01T07:00:24;25.30;;;11.83;;
16512;SDS011;8369;48.030;11.598;2023-03-01T07:02:51;21.07;;;12.60;;
16512;SDS011;8369;48.030;11.598;2023-03-01T07:05:16;20.60;;;12.20;;
16512;SDS011;8369;48.030;11.598;2023-03-01T07:07:42;18.20;;;11.93;;
16512;SDS011;8369;48.030;11.598;2023-03-01T07:10:09;19.13;;;11.13;;
16512;SDS011;8369;48.030;11.598;2023-03-01T07:12:35;20.00;;;12.60;;
16512;SDS011;8369;48.030;11.598;2023-03-01T07:15:01;21.00;;;11.97;;
16512;SDS011;8369;48.030;11.598;2023-03-01T07:17:27;19.23;;;11.97;;
16512;SDS011;8369;48.030;11.598;2023-03-01T07:19:53;22.20;;;11.50;;
16512;SDS011;8369;48.030;11.598;2023-03-01T07:22:19;23.97;;;14.33;;
16512;SDS011;8369;48.030;11.598;2023-03-01T07:24:44;19.73;;;11.77;;
16512;SDS011;8369;48.030;11.598;2023-03-01T07:27:10;21.03;;;11.97;;
16512;SDS011;8369;48.030;11.598;2023-03-01T07:29:36;21.73;;;13.30;;
16512;SDS011;8369;48.030;11.598;2023-03-01T07:32:02;22.10;;;12.33;;
16512;SDS011;8369;48.030;11.598;2023-03-01T07:34:28;22.20;;;13.07;;
16512;SDS011;8369;48.030;11.598;2023-03-01T07:36:54;17.97;;;12.00;;
16512;SDS011;8369;48.030;11.598;2023-03-01T07:39:20;22.63;;;14.87;;
16512;SDS011;8369;48.030;11.598;2023-03-01T07:41:48;23.67;;;12.77;;
16512;SDS011;8369;48.030;11.598;2023-03-01T07:44:14;21.43;;;13.20;;
16512;SDS011;8369;48.030;11.598;2023-03-01T07:46:41;23.37;;;12.53;;
16512;SDS011;8369;48.030;11.598;2023-03-01T07:49:07;21.00;;;13.43;;
16512;SDS011;8369;48.030;11.598;2023-03-01T07:51:33;22.10;;;12.77;;
16512;SDS011;8369;48.030;11.598;2023-03-01T07:53:59;22.47;;;12.23;;
16512;SDS011;8369;48.030;11.598;2023-03-01T07:56:25;20.70;;;12.53;;
16512;SDS011;8369;48.030;11.598;2023-03-01T07:58:51;23.37;;;14.07;;
16512;SDS011;8369;48.030;11.598;2023-03-01T08:01:19;25.03;;;14.43;;
16512;SDS011;8369;48.030;11.598;2023-03-01T08:03:46;20.40;;;12.63;;
16512;SDS011;8369;48.030;11.598;2023-03-01T08:06:12;22.83;;;12.87;;
16512;SDS011;8369;48.030;11.598;2023-03-01T08:08:39;23.43;;;12.67;;
16512;SDS011;8369;48.030;11.598;2023-03-01T08:11:06;23.13;;;12.60;;
16512;SDS011;8369;48.030;11.598;2023-03-01T08:13:33;20.73;;;12.60;;
16512;SDS011;8369;48.030;11.598;2023-03-01T08:16:06;22.40;;;11.67;;
16512;SDS011;8369;48.030;11.598;2023-03-01T08:18:34;19.03;;;12.17;;
16512;SDS011;8369;48.030;11.598;2023-03-01T08:21:18;18.10;;;11.67;;
16512;SDS011;8369;48.030;11.598;2023-03-01T08:23:44;20.93;;;12.80;;
16512;SDS011;8369;48.030;11.598;2023-03-01T08:26:11;23.97;;;13.57;;
16512;SDS011;8369;48.030;11.598;2023-03-01T08:28:43;25.13;;;13.47;;
16512;SDS011;8369;48.030;11.598;2023-03-01T08:31:13;21.30;;;13.97;;
16512;SDS011;8369;48.030;11.598;2023-03-01T08:33:47;24.90;;;13.53;;
16512;SDS011;8369;48.030;11.598;2023-03-01T08:36:17;23.07;;;13.83;;
16512;SDS011;8369;48.030;11.598;2023-03-01T08:38:43;21.40;;;13.13;;
16512;SDS011;8369;48.030;11.598;2023-03-01T08:41:09;21.80;;;12.57;;
16512;SDS011;8369;48.030;11.598;2023-03-01T08:43:35;20.50;;;13.00;;
16512;SDS011;8369;48.030;11.598;2023-03-01T08:46:01;23.53;;;12.70;;
16512;SDS011;8369;48.030;11.598;2023-03-01T08:48:27;21.70;;;12.37;;
16512;SDS011;8369;48.030;11.598;2023-03-01T08:50:54;21.87;;;13.10;;
16512;SDS011;8369;48.030;11.598;2023-03-01T08:53:20;22.13;;;13.00;;
16512;SDS011;8369;48.030;11.598;2023-03-01T08:55:45;22.17;;;13.80;;
16512;SDS011;8369;48.030;11.598;2023-03-01T08:58:11;23.03;;;13.50;;
16512;SDS011;8369;48.030;11.598;2023-03-01T09:00:37;19.77;;;13.07;;
16512;SDS011;8369;48.030;11.598;2023-03-01T09:03:03;22.13;;;12.80;;
16512;SDS011;8369;48.030;11.598;2023-03-01T09:05:33;27.57;;;14.60;;
16512;SDS011;8369;48.030;11.598;2023-03-01T09:07:59;22.47;;;12.37;;
16512;SDS011;8369;48.030;11.598;2023-03-01T09:10:25;19.67;;;12.30;;
16512;SDS011;8369;48.030;11.598;2023-03-01T09:12:51;21.27;;;13.10;;
16512;SDS011;8369;48.030;11.598;2023-03-01T09:15:17;21.60;;;12.47;;
16512;SDS011;8369;48.030;11.598;2023-03-01T09:17:42;21.63;;;13.10;;
16512;SDS011;8369;48.030;11.598;2023-03-01T09:20:09;23.63;;;13.57;;
16512;SDS011;8369;48.030;11.598;2023-03-01T09:22:35;23.00;;;13.07;;
16512;SDS011;8369;48.030;11.598;2023-03-01T09:25:01;22.47;;;12.70;;
16512;SDS011;8369;48.030;11.598;2023-03-01T09:27:26;19.70;;;13.13;;
16512;SDS011;8369;48.030;11.598;2023-03-01T09:29:52;21.97;;;13.00;;
16512;SDS011;8369;48.030;11.598;2023-03-01T09:35:49;23.33;;;13.50;;
16512;SDS011;8369;48.030;11.598;2023-03-01T09:38:21;28.23;;;12.47;;
16512;SDS011;8369;48.030;11.598;2023-03-01T09:40:47;22.33;;;13.13;;
16512;SDS011;8369;48.030;11.598;2023-03-01T09:43:18;23.20;;;13.07;;
16512;SDS011;8369;48.030;11.598;2023-03-01T09:45:48;21.67;;;12.13;;
16512;SDS011;8369;48.030;11.598;2023-03-01T09:48:21;30.60;;;13.97;;
16512;SDS011;8369;48.030;11.598;2023-03-01T09:50:51;21.50;;;13.07;;
16512;SDS011;8369;48.030;11.598;2023-03-01T09:53:26;24.90;;;13.57;;
16512;SDS011;8369;48.030;11.598;2023-03-01T10:01:48;21.37;;;13.63;;
16512;SDS011;8369;48.030;11.598;2023-03-01T10:04:28;25.17;;;13.17;;
16512;SDS011;8369;48.030;11.598;2023-03-01T10:09:26;23.00;;;14.00;;
16512;SDS011;8369;48.030;11.598;2023-03-01T10:11:57;22.73;;;13.70;;
16512;SDS011;8369;48.030;11.598;2023-03-01T10:20:20;24.00;;;13.90;;
16512;SDS011;8369;48.030;11.598;2023-03-01T10:22:48;25.97;;;13.70;;
16512;SDS011;8369;48.030;11.598;2023-03-01T10:25:36;22.27;;;13.47;;
16512;SDS011;8369;48.030;11.598;2023-03-01T10:28:26;27.20;;;16.60;;
16512;SDS011;8369;48.030;11.598;2023-03-01T10:31:20;24.83;;;13.20;;
16512;SDS011;8369;48.030;11.598;2023-03-01T10:33:54;25.53;;;13.77;;
16512;SDS011;8369;48.030;11.598;2023-03-01T10:36:21;20.80;;;13.07;;
16512;SDS011;8369;48.030;11.598;2023-03-01T10:38:53;23.73;;;14.10;;
16512;SDS011;8369;48.030;11.598;2023-03-01T10:41:22;23.17;;;12.97;;
16512;SDS011;8369;48.030;11.598;2023-03-01T10:43:51;25.93;;;14.60;;
16512;SDS011;8369;48.030;11.598;2023-03-01T10:51:43;26.70;;;13.90;;
16512;SDS011;8369;48.030;11.598;2023-03-01T10:54:18;24.23;;;14.17;;
16512;SDS011;8369;48.030;11.598;2023-03-01T10:56:57;27.10;;;13.67;;
16512;SDS011;8369;48.030;11.598;2023-03-01T10:59:34;26.33;;;14.57;;
16512;SDS011;8369;48.030;11.598;2023-03-01T11:07:26;20.47;;;12.43;;
16512;SDS011;8369;48.030;11.598;2023-03-01T11:09:52;25.63;;;13.73;;
16512;SDS011;8369;48.030;11.598;2023-03-01T11:12:18;24.80;;;13.57;;
16512;SDS011;8369;48.030;11.598;2023-03-01T11:14:46;22.40;;;12.40;;
16512;SDS011;8369;48.030;11.598;2023-03-01T11:17:18;24.97;;;13.23;;
16512;SDS011;8369;48.030;11.598;2023-03-01T11:20:01;22.27;;;13.07;;
16512;SDS011;8369;48.030;11.598;2023-03-01T11:22:29;23.67;;;13.20;;
16512;SDS011;8369;48.030;11.598;2023-03-01T11:24:57;20.83;;;12.73;;
16512;SDS011;8369;48.030;11.598;2023-03-01T11:27:28;23.30;;;13.47;;
16512;SDS011;8369;48.030;11.598;2023-03-01T11:29:59;22.20;;;13.13;;
16512;SDS011;8369;48.030;11.598;2023-03-01T11:35:32;22.93;;;12.90;;
16512;SDS011;8369;48.030;11.598;2023-03-01T11:38:17;23.70;;;13.73;;
16512;SDS011;8369;48.030;11.598;2023-03-01T11:40:49;25.77;;;14.00;;
16512;SDS011;8369;48.030;11.598;2023-03-01T11:43:20;22.63;;;12.77;;
16512;SDS011;8369;48.030;11.598;2023-03-01T11:46:11;24.43;;;12.93;;
16512;SDS011;8369;48.030;11.598;2023-03-01T11:49:01;23.80;;;14.33;;
16512;SDS011;8369;48.030;11.598;2023-03-01T11:51:38;22.77;;;14.03;;
16512;SDS011;8369;48.030;11.598;2023-03-01T11:57:01;20.63;;;12.90;;
16512;SDS011;8369;48.030;11.598;2023-03-01T12:03:08;24.27;;;11.57;;
16512;SDS011;8369;48.030;11.598;2023-03-01T12:06:08;26.77;;;13.77;;
16512;SDS011;8369;48.030;11.598;2023-03-01T12:12:03;22.07;;;12.57;;
16512;SDS011;8369;48.030;11.598;2023-03-01T12:28:34;20.47;;;13.37;;
16512;SDS011;8369;48.030;11.598;2023-03-01T12:39:51;21.43;;;13.03;;
16512;SDS011;8369;48.030;11.598;2023-03-01T12:48:21;21.23;;;12.80;;
16512;SDS011;8369;48.030;11.598;2023-03-01T12:50:58;21.83;;;13.03;;
16512;SDS011;8369;48.030;11.598;2023-03-01T12:53:50;23.53;;;13.33;;
16512;SDS011;8369;48.030;11.598;2023-03-01T12:56:22;23.07;;;13.40;;
16512;SDS011;8369;48.030;11.598;2023-03-01T12:58:59;25.37;;;14.33;;
16512;SDS011;8369;48.030;11.598;2023-03-01T13:01:41;22.87;;;13.53;;
16512;SDS011;8369;48.030;11.598;2023-03-01T13:04:46;25.47;;;13.73;;
16512;SDS011;8369;48.030;11.598;2023-03-01T13:17:48;24.17;;;14.70;;
16512;SDS011;8369;48.030;11.598;2023-03-01T13:20:17;25.43;;;15.00;;
16512;SDS011;8369;48.030;11.598;2023-03-01T13:22:46;27.90;;;14.77;;
16512;SDS011;8369;48.030;11.598;2023-03-01T13:25:18;23.33;;;14.43;;
16512;SDS011;8369;48.030;11.598;2023-03-01T13:27:46;24.67;;;13.90;;
16512;SDS011;8369;48.030;11.598;2023-03-01T13:35:54;25.30;;;14.43;;
16512;SDS011;8369;48.030;11.598;2023-03-01T13:41:24;22.87;;;14.87;;
16512;SDS011;8369;48.030;11.598;2023-03-01T13:46:57;26.40;;;15.27;;
16512;SDS011;8369;48.030;11.598;2023-03-01T13:49:27;25.23;;;14.17;;
16512;SDS011;8369;48.030;11.598;2023-03-01T13:51:57;23.23;;;14.80;;
16512;SDS011;8369;48.030;11.598;2023-03-01T13:54:31;22.23;;;14.40;;
16512;SDS011;8369;48.030;11.598;2023-03-01T13:56:59;26.70;;;15.70;;
16512;SDS011;8369;48.030;11.598;2023-03-01T13:59:26;25.70;;;15.23;;
16512;SDS011;8369;48.030;11.598;2023-03-01T14:01:56;24.10;;;14.30;;
16512;SDS011;8369;48.030;11.598;2023-03-01T14:04:31;21.97;;;14.17;;
16512;SDS011;8369;48.030;11.598;2023-03-01T14:09:39;25.50;;;15.27;;
16512;SDS011;8369;48.030;11.598;2023-03-01T14:20:12;28.23;;;15.60;;
16512;SDS011;8369;48.030;11.598;2023-03-01T14:22:57;22.70;;;15.70;;
16512;SDS011;8369;48.030;11.598;2023-03-01T14:25:27;27.50;;;16.07;;
16512;SDS011;8369;48.030;11.598;2023-03-01T14:27:57;25.13;;;14.83;;
16512;SDS011;8369;48.030;11.598;2023-03-01T14:30:33;28.33;;;16.37;;
16512;SDS011;8369;48.030;11.598;2023-03-01T14:33:16;21.83;;;13.90;;
16512;SDS011;8369;48.030;11.598;2023-03-01T14:38:29;24.50;;;15.47;;
16512;SDS011;8369;48.030;11.598;2023-03-01T14:41:10;29.10;;;15.60;;
16512;SDS011;8369;48.030;11.598;2023-03-01T14:44:07;27.10;;;15.97;;
16512;SDS011;8369;48.030;11.598;2023-03-01T14:46:40;22.77;;;14.50;;
16512;SDS011;8369;48.030;11.598;2023-03-01T14:51:59;30.37;;;16.03;;
16512;SDS011;8369;48.030;11.598;2023-03-01T14:54:31;29.50;;;15.73;;
16512;SDS011;8369;48.030;11.598;2023-03-01T14:57:12;24.07;;;15.80;;
16512;SDS011;8369;48.030;11.598;2023-03-01T14:59:44;27.73;;;16.17;;
16512;SDS011;8369;48.030;11.598;2023-03-01T15:02:17;26.17;;;15.80;;
16512;SDS011;8369;48.030;11.598;2023-03-01T15:04:46;24.13;;;15.53;;
16512;SDS011;8369;48.030;11.598;2023-03-01T15:07:14;26.37;;;15.07;;
16512;SDS011;8369;48.030;11.598;2023-03-01T15:09:41;24.83;;;15.70;;
16512;SDS011;8369;48.030;11.598;2023-03-01T15:18:21;26.90;;;15.40;;
16512;SDS011;8369;48.030;11.598;2023-03-01T15:20:51;24.20;;;14.53;;
16512;SDS011;8369;48.030;11.598;2023-03-01T15:25:55;29.63;;;15.60;;
16512;SDS011;8369;48.030;11.598;2023-03-01T15:28:23;25.40;;;15.20;;
16512;SDS011;8369;48.030;11.598;2023-03-01T15:30:55;27.47;;;16.00;;
16512;SDS011;8369;48.030;11.598;2023-03-01T15:33:36;24.07;;;15.17;;
16512;SDS011;8369;48.030;11.598;2023-03-01T15:36:04;24.87;;;15.10;;
16512;SDS011;8369;48.030;11.598;2023-03-01T15:39:23;26.17;;;15.77;;
16512;SDS011;8369;48.030;11.598;2023-03-01T15:41:58;25.10;;;15.80;;
16512;SDS011;8369;48.030;11.598;2023-03-01T15:44:29;27.73;;;15.97;;
16512;SDS011;8369;48.030;11.598;2023-03-01T15:46:58;31.00;;;16.83;;
16512;SDS011;8369;48.030;11.598;2023-03-01T15:49:41;25.97;;;16.23;;
16512;SDS011;8369;48.030;11.598;2023-03-01T15:52:18;25.87;;;16.10;;
16512;SDS011;8369;48.030;11.598;2023-03-01T15:55:01;24.83;;;14.47;;
16512;SDS011;8369;48.030;11.598;2023-03-01T15:57:29;28.43;;;16.30;;
16512;SDS011;8369;48.030;11.598;2023-03-01T15:59:59;28.20;;;16.33;;
16512;SDS011;8369;48.030;11.598;2023-03-01T16:02:25;25.37;;;15.30;;
16512;SDS011;8369;48.030;11.598;2023-03-01T16:04:52;25.53;;;16.13;;
16512;SDS011;8369;48.030;11.598;2023-03-01T16:07:22;26.37;;;17.40;;
16512;SDS011;8369;48.030;11.598;2023-03-01T16:09:48;27.13;;;15.30;;
16512;SDS011;8369;48.030;11.598;2023-03-01T16:12:15;24.93;;;15.57;;
16512;SDS011;8369;48.030;11.598;2023-03-01T16:14:43;28.17;;;16.83;;
16512;SDS011;8369;48.030;11.598;2023-03-01T16:17:10;29.77;;;16.10;;
16512;SDS011;8369;48.030;11.598;2023-03-01T16:19:37;26.70;;;15.63;;
16512;SDS011;8369;48.030;11.598;2023-03-01T16:22:04;28.27;;;15.60;;
16512;SDS011;8369;48.030;11.598;2023-03-01T16:24:32;24.80;;;15.77;;
16512;SDS011;8369;48.030;11.598;2023-03-01T16:27:04;29.87;;;15.17;;
16512;SDS011;8369;48.030;11.598;2023-03-01T16:29:34;26.70;;;16.03;;
16512;SDS011;8369;48.030;11.598;2023-03-01T16:32:03;26.17;;;16.13;;
16512;SDS011;8369;48.030;11.598;2023-03-01T16:34:30;25.97;;;15.03;;
16512;SDS011;8369;48.030;11.598;2023-03-01T16:36:56;24.43;;;15.20;;
16512;SDS011;8369;48.030;11.598;2023-03-01T16:39:26;26.00;;;15.47;;
16512;SDS011;8369;48.030;11.598;2023-03-01T16:41:53;28.50;;;15.87;;